createdAt,value
2022-08-10T00:02:30.617Z,47.60
2022-08-10T00:05:53.573Z,47.30
2022-08-10T00:09:13.756Z,47.60
2022-08-10T00:12:54.207Z,47.60
2022-08-10T00:16:14.678Z,47.60
2022-08-10T00:20:02.988Z,47.80
2022-08-10T00:23:15.630Z,47.80
2022-08-10T00:27:50.020Z,47.80
2022-08-10T00:30:16.105Z,47.80
2022-08-10T00:33:36.446Z,47.70
2022-08-10T00:36:57.542Z,47.60
2022-08-10T00:40:17.834Z,47.50
2022-08-10T00:43:38.165Z,47.70
2022-08-10T00:47:00.775Z,47.60
2022-08-10T00:50:21.147Z,47.70
2022-08-10T00:53:41.641Z,47.80
2022-08-10T00:57:18.130Z,47.60
2022-08-10T01:00:39.506Z,47.70
2022-08-10T01:04:57.459Z,47.70
2022-08-10T01:08:02.651Z,47.70
2022-08-10T01:12:38.187Z,47.60
2022-08-10T01:15:59.463Z,47.50
2022-08-10T01:19:41.098Z,47.40
2022-08-10T01:23:23.358Z,47.60
2022-08-10T01:27:06.545Z,47.60
2022-08-10T01:30:28.988Z,47.50
2022-08-10T01:37:23.052Z,47.70
2022-08-10T01:40:49.899Z,47.70
2022-08-10T01:44:45.438Z,47.80
2022-08-10T01:48:25.150Z,47.60
2022-08-10T01:51:56.266Z,48.00
2022-08-10T01:55:21.218Z,47.80
2022-08-10T01:58:43.806Z,48.10
2022-08-10T02:02:08.026Z,47.90
2022-08-10T02:05:30.980Z,48.00
2022-08-10T02:08:55.830Z,48.00
2022-08-10T02:12:30.046Z,48.20
2022-08-10T02:16:02.226Z,47.90
2022-08-10T02:19:25.258Z,48.00
2022-08-10T02:22:49.384Z,48.00
2022-08-10T02:26:11.258Z,48.10
2022-08-10T02:29:32.906Z,48.10
2022-08-10T02:32:54.305Z,48.10
2022-08-10T02:36:16.704Z,48.30
2022-08-10T02:39:38.390Z,48.30
2022-08-10T02:45:23.958Z,48.10
2022-08-10T02:46:57.885Z,48.10
2022-08-10T02:50:27.321Z,48.10
2022-08-10T02:53:56.981Z,48.20
2022-08-10T02:57:25.017Z,48.20
2022-08-10T03:00:49.805Z,48.20
2022-08-10T03:04:57.020Z,48.30
2022-08-10T03:08:10.361Z,48.30
2022-08-10T03:12:34.994Z,48.50
2022-08-10T03:15:16.939Z,48.30
2022-08-10T03:18:39.529Z,48.30
2022-08-10T03:22:00.810Z,48.40
2022-08-10T03:25:23.800Z,48.40
2022-08-10T03:28:45.477Z,48.30
2022-08-10T03:32:06.983Z,48.50
2022-08-10T03:35:28.020Z,48.40
2022-08-10T03:38:51.607Z,48.60
2022-08-10T03:42:13.633Z,48.70
2022-08-10T03:45:48.501Z,48.60
2022-08-10T03:49:19.041Z,48.70
2022-08-10T03:52:39.552Z,48.60
2022-08-10T03:56:29.591Z,48.70
2022-08-10T03:59:41.019Z,48.70
2022-08-10T04:03:05.411Z,48.80
2022-08-10T04:06:25.757Z,48.90
2022-08-10T04:09:55.143Z,48.90
2022-08-10T04:13:16.528Z,48.80
2022-08-10T04:16:36.885Z,49.00
2022-08-10T04:19:59.113Z,49.80
2022-08-10T04:23:27.064Z,49.10
2022-08-10T04:26:47.404Z,49.40
2022-08-10T04:30:08.335Z,49.40
2022-08-10T04:33:29.991Z,49.50
2022-08-10T04:36:52.656Z,49.50
2022-08-10T04:40:28.424Z,49.50
2022-08-10T04:43:51.109Z,49.40
2022-08-10T04:47:11.389Z,49.70
2022-08-10T04:50:31.969Z,49.40
2022-08-10T04:54:05.184Z,48.70
2022-08-10T04:57:27.446Z,47.50
2022-08-10T05:00:47.777Z,47.80
2022-08-10T05:04:35.448Z,47.30
2022-08-10T05:07:48.233Z,47.50
2022-08-10T05:11:23.864Z,46.40
2022-08-10T05:14:44.469Z,46.00
2022-08-10T05:18:09.541Z,46.40
2022-08-10T05:21:59.815Z,46.50
2022-08-10T05:25:16.427Z,47.80
2022-08-10T05:28:36.916Z,46.90
2022-08-10T05:31:57.505Z,47.00
2022-08-10T05:35:17.925Z,47.30
2022-08-10T05:38:39.011Z,47.30
2022-08-10T05:42:01.212Z,47.30
2022-08-10T05:45:25.398Z,46.90
2022-08-10T05:48:59.236Z,46.90
2022-08-10T05:52:21.529Z,47.20
2022-08-10T05:55:41.731Z,47.90
2022-08-10T06:07:52.784Z,46.80
2022-08-10T06:12:27.947Z,48.10
2022-08-10T06:15:05.168Z,47.60
2022-08-10T06:18:26.361Z,47.00
2022-08-10T06:22:00.520Z,47.30
2022-08-10T06:26:08.175Z,47.50
2022-08-10T06:29:09.235Z,47.20
2022-08-10T06:32:30.047Z,47.10
2022-08-10T06:35:54.641Z,47.00
2022-08-10T06:39:34.211Z,46.80
2022-08-10T06:42:58.015Z,46.90
2022-08-10T06:46:21.698Z,46.80
2022-08-10T06:49:44.477Z,46.90
2022-08-10T06:53:15.757Z,46.70
2022-08-10T06:57:01.726Z,46.90
2022-08-10T07:00:27.668Z,46.80
2022-08-10T07:04:06.617Z,47.20
2022-08-10T07:07:30.106Z,47.20
2022-08-10T07:10:52.490Z,47.60
2022-08-10T07:14:18.465Z,47.60
2022-08-10T07:17:40.671Z,47.30
2022-08-10T07:21:01.985Z,47.40
2022-08-10T07:24:23.459Z,47.40
2022-08-10T07:27:59.973Z,47.60
2022-08-10T07:31:54.826Z,47.60
2022-08-10T07:35:04.067Z,47.10
2022-08-10T07:38:27.691Z,46.90
2022-08-10T07:41:50.814Z,47.00
2022-08-10T07:45:11.778Z,46.80
2022-08-10T07:48:35.917Z,46.80
2022-08-10T07:51:58.367Z,47.00
2022-08-10T07:56:08.300Z,47.50
2022-08-10T07:59:07.792Z,47.40
2022-08-10T08:02:35.891Z,47.50
2022-08-10T08:06:05.624Z,47.80
2022-08-10T08:09:33.499Z,47.70
2022-08-10T08:12:57.509Z,47.30
2022-08-10T08:16:22.097Z,47.60
2022-08-10T08:19:46.559Z,47.60
2022-08-10T08:24:10.407Z,48.80
2022-08-10T08:26:59.517Z,48.00
2022-08-10T08:30:26.840Z,47.60
2022-08-10T08:33:49.889Z,48.00
2022-08-10T08:38:27.652Z,48.00
2022-08-10T08:41:17.887Z,47.80
2022-08-10T08:45:20.348Z,48.30
2022-08-10T08:50:04.779Z,47.70
2022-08-10T08:53:22.006Z,47.80
2022-08-10T08:57:04.542Z,47.60
2022-08-10T09:00:48.291Z,47.60
2022-08-10T09:04:30.443Z,47.70
2022-08-10T09:08:02.837Z,47.60
2022-08-10T09:12:01.377Z,47.60
2022-08-10T09:15:41.612Z,47.50
2022-08-10T09:19:10.092Z,47.30
2022-08-10T09:24:04.170Z,47.60
2022-08-10T09:27:18.210Z,47.30
2022-08-10T09:31:21.454Z,47.30
2022-08-10T09:36:23.686Z,47.10
2022-08-10T09:40:12.610Z,46.90
2022-08-10T09:43:25.312Z,47.00
2022-08-10T09:47:04.661Z,47.20
2022-08-10T09:51:16.387Z,47.00
2022-08-10T09:54:46.483Z,46.60
2022-08-10T09:58:12.407Z,46.70
2022-08-10T10:02:03.290Z,46.50
2022-08-10T10:05:51.913Z,46.80
2022-08-10T10:09:18.428Z,46.30
2022-08-10T10:13:09.961Z,46.50
2022-08-10T10:17:05.945Z,46.40
2022-08-10T10:21:23.783Z,46.20
2022-08-10T10:25:19.893Z,46.40
2022-08-10T10:33:25.290Z,46.10
2022-08-10T10:36:48.372Z,46.30
2022-08-10T10:40:09.874Z,46.70
2022-08-10T10:44:08.255Z,46.90
2022-08-10T10:48:04.476Z,47.20
2022-08-10T10:51:49.385Z,47.10
2022-08-10T10:56:13.592Z,47.00
2022-08-10T10:59:55.539Z,47.10
2022-08-10T11:03:23.569Z,47.00
2022-08-10T11:06:55.792Z,47.10
2022-08-10T11:10:33.361Z,47.00
2022-08-10T11:14:27.427Z,47.10
2022-08-10T11:17:56.297Z,47.30
2022-08-10T11:21:24.587Z,47.50
2022-08-10T11:24:56.799Z,47.60
2022-08-10T11:28:46.310Z,47.60
2022-08-10T11:32:41.051Z,46.00
2022-08-10T11:36:25.884Z,46.80
2022-08-10T11:39:59.970Z,47.00
2022-08-10T11:43:26.138Z,47.40
2022-08-10T11:46:56.779Z,47.60
2022-08-10T11:50:32.837Z,47.80
2022-08-10T11:54:04.659Z,47.80
2022-08-10T11:57:54.150Z,47.70
2022-08-10T12:01:15.097Z,47.60
2022-08-10T12:04:39.237Z,46.90
2022-08-10T12:10:01.949Z,47.50
2022-08-10T12:11:41.368Z,47.30
2022-08-10T12:15:12.560Z,47.00
2022-08-10T12:18:45.986Z,46.90
2022-08-10T12:22:10.423Z,47.10
2022-08-10T12:26:07.478Z,46.90
2022-08-10T12:29:37.202Z,46.80
2022-08-10T12:33:04.631Z,47.10
2022-08-10T12:36:33.326Z,46.70
2022-08-10T12:40:34.061Z,46.10
2022-08-10T12:44:17.222Z,46.50
2022-08-10T12:48:00.129Z,46.30
2022-08-10T12:51:30.316Z,46.50
2022-08-10T12:54:53.577Z,46.10
2022-08-10T12:58:57.188Z,46.10
2022-08-10T13:02:06.729Z,46.40
2022-08-10T13:05:54.704Z,46.10
2022-08-10T13:09:14.599Z,46.00
2022-08-10T13:12:40.486Z,45.80
2022-08-10T13:16:02.791Z,45.70
2022-08-10T13:19:25.828Z,45.90
2022-08-10T13:22:51.077Z,46.30
2022-08-10T13:26:17.530Z,46.10
2022-08-10T13:29:42.718Z,46.40
2022-08-10T13:33:03.690Z,46.10
